createdAt,value
2023-09-04T00:00:14.003Z,101672.34
2023-09-04T00:02:42.836Z,101665.22
2023-09-04T00:05:10.993Z,101666.88
2023-09-04T00:07:38.890Z,101673.03
2023-09-04T00:10:09.558Z,101656.09
2023-09-04T00:12:37.560Z,101664.94
2023-09-04T00:15:06.470Z,101654.03
2023-09-04T00:17:35.214Z,101621.97
2023-09-04T00:20:03.507Z,101656.72
2023-09-04T00:22:31.414Z,101665.56
2023-09-04T00:24:59.394Z,101670.81
2023-09-04T00:27:28.676Z,101664.63
2023-09-04T00:29:56.581Z,101668.13
2023-09-04T00:32:24.605Z,101653.06
2023-09-04T00:34:52.499Z,101622.69
2023-09-04T00:37:20.375Z,101560.19
2023-09-04T00:39:48.313Z,101597.84
2023-09-04T00:42:17.046Z,101651.25
2023-09-04T00:44:48.670Z,101649.38
2023-09-04T00:47:18.597Z,101591.50
2023-09-04T00:49:47.752Z,101627.38
2023-09-04T00:52:16.139Z,101619.34
2023-09-04T00:54:45.093Z,101621.09
2023-09-04T00:57:14.068Z,101626.50
2023-09-04T00:59:42.576Z,101626.44
2023-09-04T01:02:12.606Z,101629.94
2023-09-04T01:04:40.559Z,101614.81
2023-09-04T01:07:08.481Z,101627.28
2023-09-04T01:09:37.386Z,101590.84
2023-09-04T01:12:11.963Z,101548.63
2023-09-04T01:14:46.176Z,101628.03
2023-09-04T01:17:16.470Z,101635.91
2023-09-04T01:19:45.109Z,101637.63
2023-09-04T01:22:14.462Z,101641.97
2023-09-04T01:24:43.690Z,101638.34
2023-09-04T01:27:20.284Z,101632.19
2023-09-04T01:29:58.726Z,101632.94
2023-09-04T01:32:33.052Z,101642.66
2023-09-04T01:35:04.709Z,101640.81
2023-09-04T01:37:34.788Z,101626.44
2023-09-04T01:40:06.076Z,101638.94
2023-09-04T01:42:36.084Z,101626.56
2023-09-04T01:45:04.406Z,101633.56
2023-09-04T01:47:32.457Z,101635.28
2023-09-04T01:50:00.637Z,101642.31
2023-09-04T01:52:28.580Z,101653.75
2023-09-04T01:54:58.030Z,101666.06
2023-09-04T01:57:26.192Z,101652.00
2023-09-04T01:59:54.066Z,101652.84
2023-09-04T02:02:21.926Z,101646.66
2023-09-04T02:04:50.165Z,101655.41
2023-09-04T02:07:18.484Z,101651.88
2023-09-04T02:09:46.502Z,101649.19
2023-09-04T02:12:16.553Z,101651.88
2023-09-04T02:14:44.945Z,101659.78
2023-09-04T02:17:13.258Z,101669.38
2023-09-04T02:19:41.631Z,101672.88
2023-09-04T02:22:09.683Z,101676.31
2023-09-04T02:24:37.566Z,101670.09
2023-09-04T02:27:05.816Z,101650.63
2023-09-04T02:29:35.065Z,101655.19
2023-09-04T02:32:03.008Z,101645.53
2023-09-04T02:34:31.093Z,101640.25
2023-09-04T02:37:00.173Z,101640.22
2023-09-04T02:39:28.099Z,101637.50
2023-09-04T02:41:56.182Z,101635.84
2023-09-04T02:44:24.095Z,101632.34
2023-09-04T02:46:53.386Z,101638.47
2023-09-04T02:49:21.422Z,101641.97
2023-09-04T02:51:49.299Z,101650.78
2023-09-04T02:54:17.262Z,101656.03
2023-09-04T02:56:45.256Z,101653.34
2023-09-04T02:59:13.107Z,101656.88
2023-09-04T03:01:41.020Z,101650.72
2023-09-04T03:04:10.583Z,101641.75
2023-09-04T03:06:39.528Z,101655.91
2023-09-04T03:09:07.432Z,101670.09
2023-09-04T03:11:35.446Z,101671.91
2023-09-04T03:14:03.338Z,101668.41
2023-09-04T03:16:31.202Z,101665.91
2023-09-04T03:18:59.277Z,101671.22
2023-09-04T03:21:29.435Z,101672.06
2023-09-04T03:23:57.351Z,101657.88
2023-09-04T03:26:25.419Z,101667.69
2023-09-04T03:28:53.361Z,101638.31
2023-09-04T03:31:21.338Z,101663.41
2023-09-04T03:33:49.498Z,101651.09
2023-09-04T03:36:17.496Z,101660.81
2023-09-04T03:38:46.838Z,101654.69
2023-09-04T03:41:14.929Z,101650.31
2023-09-04T03:43:42.882Z,101648.59
2023-09-04T03:46:14.430Z,101647.84
2023-09-04T03:48:42.621Z,101661.19
2023-09-04T03:51:11.221Z,101633.63
2023-09-04T03:53:39.140Z,101659.59
2023-09-04T03:56:08.771Z,101666.78
2023-09-04T03:58:36.659Z,101657.97
2023-09-04T04:01:05.631Z,101665.28
2023-09-04T04:03:33.894Z,101627.88
2023-09-04T04:06:01.896Z,101640.53
2023-09-04T04:08:29.802Z,101667.34
2023-09-04T04:10:59.787Z,101670.06
2023-09-04T04:13:29.054Z,101670.16
2023-09-04T04:15:59.304Z,101666.66
2023-09-04T04:18:28.612Z,101660.56
2023-09-04T04:20:56.580Z,101665.91
2023-09-04T04:23:25.083Z,101659.78
2023-09-04T04:25:53.703Z,101660.63
2023-09-04T04:28:23.298Z,101659.63
2023-09-04T04:30:53.076Z,101670.38
2023-09-04T04:33:21.090Z,101664.94
2023-09-04T04:35:53.550Z,101622.03
2023-09-04T04:38:22.032Z,101676.47
2023-09-04T04:40:50.171Z,101679.00
2023-09-04T04:43:18.113Z,101683.38
2023-09-04T04:45:46.173Z,101675.44
2023-09-04T04:48:15.494Z,101578.03
2023-09-04T04:50:44.291Z,101692.13
2023-09-04T04:53:12.337Z,101708.97
2023-09-04T04:55:40.200Z,101724.06
2023-09-04T04:58:08.148Z,101733.88
2023-09-04T05:00:36.136Z,101701.81
2023-09-04T05:03:04.267Z,101717.06
2023-09-04T05:05:33.689Z,101737.59
2023-09-04T05:08:01.654Z,101733.25
2023-09-04T05:10:30.549Z,101729.78
2023-09-04T05:12:58.659Z,101728.91
2023-09-04T05:15:26.747Z,101735.31
2023-09-04T05:17:54.685Z,101741.63
2023-09-04T05:20:22.812Z,101720.41
2023-09-04T05:22:52.198Z,101724.28
2023-09-04T05:25:20.216Z,101711.88
2023-09-04T05:27:48.124Z,101707.44
2023-09-04T05:30:16.945Z,101718.34
2023-09-04T05:32:44.890Z,101710.53
2023-09-04T05:35:15.177Z,101707.00
2023-09-04T05:37:44.790Z,101714.19
2023-09-04T05:40:15.053Z,101686.53
2023-09-04T05:42:43.048Z,101711.53
2023-09-04T05:45:12.068Z,101706.25
2023-09-04T05:47:40.261Z,101667.09
2023-09-04T05:50:11.148Z,101709.91
2023-09-04T05:52:39.269Z,101716.16
2023-09-04T05:55:08.145Z,101727.69
2023-09-04T05:57:38.134Z,101727.69
2023-09-04T06:00:08.940Z,101733.97
2023-09-04T06:02:37.026Z,101740.25
2023-09-04T06:05:05.503Z,101748.31
2023-09-04T06:07:33.660Z,101737.72
2023-09-04T06:10:01.655Z,101749.38
2023-09-04T06:12:29.592Z,101749.56
2023-09-04T06:14:59.000Z,101748.84
2023-09-04T06:17:27.027Z,101737.53
2023-09-04T06:19:54.917Z,101742.03
2023-09-04T06:22:22.894Z,101739.44
2023-09-04T06:24:51.149Z,101756.53
2023-09-04T06:27:19.059Z,101756.72
2023-09-04T06:29:46.993Z,101739.88
2023-09-04T06:32:16.954Z,101762.06
2023-09-04T06:34:44.846Z,101760.34
2023-09-04T06:37:12.822Z,101754.06
2023-09-04T06:39:40.876Z,101770.25
2023-09-04T06:42:08.753Z,101763.38
2023-09-04T06:44:36.680Z,101769.78
2023-09-04T06:47:04.816Z,101763.81
2023-09-04T06:49:34.157Z,101764.97
2023-09-04T06:52:02.116Z,101766.91
2023-09-04T06:54:30.270Z,101772.31
2023-09-04T06:56:58.257Z,101762.75
2023-09-04T06:59:26.304Z,101775.59
2023-09-04T07:01:54.301Z,101754.63
2023-09-04T07:04:22.681Z,101758.31
2023-09-04T07:06:52.069Z,101686.28
2023-09-04T07:09:19.997Z,101768.63
2023-09-04T07:11:48.093Z,101768.03
2023-09-04T07:14:16.192Z,101777.06
2023-09-04T07:16:57.658Z,101786.16
2023-09-04T07:19:32.020Z,101785.22
2023-09-04T07:22:01.297Z,101779.94
2023-09-04T07:24:29.568Z,101773.75
2023-09-04T07:26:57.600Z,101761.53
2023-09-04T07:29:25.480Z,101761.78
2023-09-04T07:31:55.284Z,101762.69
2023-09-04T07:34:23.993Z,101733.22
2023-09-04T07:36:53.363Z,101758.19
2023-09-04T07:39:22.622Z,101754.69
2023-09-04T07:41:50.756Z,101753.72
2023-09-04T07:44:18.612Z,101760.81
2023-09-04T07:46:46.493Z,101771.78
2023-09-04T07:49:14.616Z,101743.53
2023-09-04T07:51:42.612Z,101770.28
2023-09-04T07:54:12.527Z,101770.13
2023-09-04T07:56:42.881Z,101768.38
2023-09-04T07:59:11.777Z,101758.69
2023-09-04T08:01:40.140Z,101759.81
2023-09-04T08:04:08.491Z,101765.31
2023-09-04T08:06:36.598Z,101767.16
2023-09-04T08:09:04.874Z,101778.72
2023-09-04T08:11:32.978Z,101780.53
2023-09-04T08:14:02.284Z,101773.47
2023-09-04T08:16:30.403Z,101764.66
2023-09-04T08:18:58.452Z,101780.66
2023-09-04T08:21:26.491Z,101776.22
2023-09-04T08:23:54.411Z,101756.69
2023-09-04T08:26:22.441Z,101782.41
2023-09-04T08:28:50.507Z,101745.94
2023-09-04T08:31:20.023Z,101744.09
2023-09-04T08:33:48.229Z,101775.16
2023-09-04T08:36:16.124Z,101770.22
2023-09-04T08:38:44.043Z,101783.94
2023-09-04T08:41:18.309Z,101758.19
2023-09-04T08:43:48.964Z,101789.25
2023-09-04T08:46:19.168Z,101781.03
2023-09-04T08:48:47.790Z,101775.06
2023-09-04T08:51:18.296Z,101781.22
2023-09-04T08:53:46.938Z,101788.28
2023-09-04T08:56:16.476Z,101788.28
2023-09-04T08:58:44.786Z,101788.16
2023-09-04T09:01:15.097Z,101798.50
2023-09-04T09:03:45.256Z,101795.66
2023-09-04T09:06:13.493Z,101792.81
2023-09-04T09:08:44.281Z,101774.84
2023-09-04T09:11:14.839Z,101785.69
2023-09-04T09:13:43.622Z,101809.44
2023-09-04T09:16:11.591Z,101813.22
2023-09-04T09:18:41.776Z,101792.63
2023-09-04T09:21:29.844Z,101794.09
2023-09-04T09:24:16.890Z,101798.38
2023-09-04T09:26:46.619Z,101703.22
2023-09-04T09:29:15.440Z,101796.34
2023-09-04T09:31:47.071Z,101789.56
2023-09-04T09:34:15.589Z,101790.44
2023-09-04T09:36:45.065Z,101794.03
2023-09-04T09:39:12.978Z,101798.72
2023-09-04T09:41:40.906Z,101802.53
2023-09-04T09:44:08.830Z,101800.72
2023-09-04T09:46:39.170Z,101708.53
2023-09-04T09:49:08.971Z,101786.66
2023-09-04T09:51:38.391Z,101804.31
2023-09-04T09:54:10.141Z,101784.44
2023-09-04T09:56:40.236Z,101778.25
2023-09-04T09:59:09.318Z,101788.72
2023-09-04T10:01:39.505Z,101780.97
2023-09-04T10:04:08.636Z,101784.03
2023-09-04T10:06:40.850Z,101774.25
2023-09-04T10:09:13.290Z,101775.19
2023-09-04T10:11:45.439Z,101763.63
2023-09-04T10:14:16.859Z,101796.59
2023-09-04T10:16:48.259Z,101793.22
2023-09-04T10:19:20.029Z,101781.63
2023-09-04T10:21:54.883Z,101783.09
2023-09-04T10:24:32.449Z,101779.63
2023-09-04T10:27:07.125Z,101741.13
2023-09-04T10:29:43.877Z,101775.75
2023-09-04T10:32:13.608Z,101775.25
2023-09-04T10:34:42.402Z,101779.75
2023-09-04T10:37:12.469Z,101790.34
2023-09-04T10:39:43.025Z,101790.69
2023-09-04T10:42:13.833Z,101780.72
2023-09-04T10:44:52.523Z,101792.06
2023-09-04T10:47:21.269Z,101800.66
2023-09-04T10:49:50.271Z,101791.94
2023-09-04T10:52:18.596Z,101788.44
2023-09-04T10:54:47.916Z,101786.47
2023-09-04T10:57:17.400Z,101784.38
2023-09-04T11:00:02.376Z,101769.50
2023-09-04T11:02:32.679Z,101774.81
2023-09-04T11:05:02.017Z,101777.97
2023-09-04T11:07:35.488Z,101778.81
2023-09-04T11:10:30.369Z,101782.84
2023-09-04T11:12:58.306Z,101777.31
2023-09-04T11:15:29.814Z,101753.25
2023-09-04T11:17:58.122Z,101767.59
2023-09-04T11:20:28.608Z,101784.03
2023-09-04T11:22:58.463Z,101778.94
2023-09-04T11:25:27.731Z,101791.91
2023-09-04T11:27:55.795Z,101775.09
2023-09-04T11:30:23.851Z,101777.06
2023-09-04T11:32:52.953Z,101776.03
2023-09-04T11:35:21.736Z,101781.03
2023-09-04T11:37:49.762Z,101786.19
2023-09-04T11:40:17.620Z,101782.63
2023-09-04T11:42:47.633Z,101787.81
2023-09-04T11:45:16.182Z,101795.66
2023-09-04T11:47:44.550Z,101785.81
2023-09-04T11:50:16.842Z,101799.91
2023-09-04T11:52:45.122Z,101792.53
2023-09-04T11:55:13.417Z,101799.28
2023-09-04T11:57:41.557Z,101794.19
2023-09-04T12:00:13.389Z,101794.91
2023-09-04T12:02:44.087Z,101809.34
2023-09-04T12:05:12.694Z,101758.28
2023-09-04T12:07:40.605Z,101782.22
2023-09-04T12:10:09.864Z,101800.72
2023-09-04T12:12:37.842Z,101719.47
2023-09-04T12:15:07.505Z,101812.13
2023-09-04T12:17:36.966Z,101804.75
2023-09-04T12:20:09.417Z,101804.34
2023-09-04T12:22:37.710Z,101790.44
2023-09-04T12:25:09.542Z,101799.25
2023-09-04T12:27:38.939Z,101789.72
2023-09-04T12:30:10.363Z,101793.00
2023-09-04T12:32:40.639Z,101786.59
2023-09-04T12:35:09.495Z,101796.50
2023-09-04T12:37:38.526Z,101797.91
2023-09-04T12:40:09.879Z,101802.25
2023-09-04T12:42:39.475Z,101798.78
2023-09-04T12:45:09.193Z,101793.38
2023-09-04T12:47:37.225Z,101798.09
2023-09-04T12:50:07.165Z,101795.56
2023-09-04T12:52:35.826Z,101788.22
2023-09-04T12:55:04.214Z,101777.03
2023-09-04T12:57:32.261Z,101774.28
2023-09-04T13:00:00.240Z,101765.88
2023-09-04T13:02:28.292Z,101753.25
2023-09-04T13:04:56.264Z,101746.78
2023-09-04T13:07:26.129Z,101742.16
2023-09-04T13:09:54.199Z,101727.81
2023-09-04T13:12:22.104Z,101745.25
2023-09-04T13:14:50.171Z,101754.28
2023-09-04T13:17:18.323Z,101741.56
2023-09-04T13:19:46.350Z,101743.28
2023-09-04T13:22:14.374Z,101729.47
2023-09-04T13:24:43.724Z,101731.56
2023-09-04T13:27:11.703Z,101730.84
2023-09-04T13:29:39.677Z,101726.28
2023-09-04T13:32:08.024Z,101729.72
2023-09-04T13:34:35.900Z,101731.94
2023-09-04T13:37:03.899Z,101626.88
2023-09-04T13:39:31.865Z,101727.63
2023-09-04T13:42:01.946Z,101719.31
2023-09-04T13:44:29.958Z,101650.06
2023-09-04T13:46:58.072Z,101729.78
2023-09-04T13:49:25.934Z,101682.94
2023-09-04T13:51:53.950Z,101708.47
2023-09-04T13:54:21.927Z,101711.41
2023-09-04T13:56:51.400Z,101705.41
2023-09-04T13:59:23.917Z,101706.38
2023-09-04T14:01:51.877Z,101702.13
2023-09-04T14:04:19.887Z,101700.00
2023-09-04T14:06:47.886Z,101704.47
2023-09-04T14:09:16.216Z,101626.22
2023-09-04T14:11:44.304Z,101693.50
2023-09-04T14:14:12.203Z,101699.66
2023-09-04T14:16:41.542Z,101697.63
2023-09-04T14:19:11.192Z,101689.13
2023-09-04T14:21:39.257Z,101691.59
2023-09-04T14:24:08.476Z,101702.88
2023-09-04T14:26:36.525Z,101709.38
2023-09-04T14:29:04.537Z,101701.53
2023-09-04T14:31:32.796Z,101694.56
2023-09-04T14:34:04.556Z,101685.19
2023-09-04T14:36:32.585Z,101683.25
2023-09-04T14:39:00.919Z,101666.78
2023-09-04T14:41:32.273Z,101672.25
2023-09-04T14:44:00.423Z,101660.34
2023-09-04T14:46:31.163Z,101672.59
2023-09-04T14:48:59.486Z,101655.00
2023-09-04T14:51:28.836Z,101661.59
2023-09-04T14:53:56.820Z,101648.00
2023-09-04T14:56:26.640Z,101661.75
2023-09-04T14:58:54.966Z,101668.91
2023-09-04T15:01:24.620Z,101664.09
2023-09-04T15:03:53.603Z,101658.22
2023-09-04T15:06:21.694Z,101663.97
2023-09-04T15:08:50.997Z,101675.72
2023-09-04T15:11:18.909Z,101683.78
2023-09-04T15:13:47.001Z,101666.09
2023-09-04T15:16:15.122Z,101669.78
2023-09-04T15:18:43.420Z,101651.53
2023-09-04T15:21:11.936Z,101638.13
2023-09-04T15:23:39.843Z,101656.47
2023-09-04T15:26:09.185Z,101668.38
2023-09-04T15:28:37.164Z,101679.50
2023-09-04T15:31:05.154Z,101674.00
2023-09-04T15:33:33.111Z,101667.69
2023-09-04T15:36:02.924Z,101663.75
2023-09-04T15:38:32.911Z,101661.34
2023-09-04T15:41:01.148Z,101653.56
2023-09-04T15:43:30.668Z,101633.63
2023-09-04T15:45:59.530Z,101651.41
2023-09-04T15:48:28.010Z,101645.50
2023-09-04T15:50:56.506Z,101609.66
2023-09-04T15:53:24.697Z,101645.28
2023-09-04T15:55:56.519Z,101641.25
2023-09-04T15:58:26.618Z,101621.91
2023-09-04T16:00:56.346Z,101628.78
2023-09-04T16:03:24.452Z,101637.63
2023-09-04T16:05:52.466Z,101636.91
2023-09-04T16:08:22.031Z,101632.69
2023-09-04T16:10:50.124Z,101635.56
2023-09-04T16:13:21.517Z,101613.34
2023-09-04T16:15:49.401Z,101621.34
2023-09-04T16:18:18.893Z,101627.59
2023-09-04T16:20:48.014Z,101623.84
2023-09-04T16:23:19.392Z,101626.53
2023-09-04T16:25:48.080Z,101606.16
2023-09-04T16:28:21.157Z,101612.72
2023-09-04T16:30:50.645Z,101603.13
2023-09-04T16:33:22.536Z,101583.84
2023-09-04T16:35:50.744Z,101603.59
2023-09-04T16:38:18.631Z,101596.72
2023-09-04T16:40:46.832Z,101595.03
2023-09-04T16:43:14.885Z,101596.00
2023-09-04T16:45:42.783Z,101586.34
2023-09-04T16:48:10.699Z,101580.25
2023-09-04T16:50:40.108Z,101579.41
2023-09-04T16:53:08.214Z,101585.69
2023-09-04T16:55:36.714Z,101574.22
2023-09-04T16:58:04.951Z,101584.91
2023-09-04T17:00:33.437Z,101583.22
2023-09-04T17:03:01.808Z,101580.59
2023-09-04T17:05:29.868Z,101585.09
2023-09-04T17:07:59.387Z,101577.09
2023-09-04T17:10:27.530Z,101584.28
2023-09-04T17:12:55.627Z,101588.78
2023-09-04T17:15:23.498Z,101573.75
2023-09-04T17:17:51.406Z,101588.00
2023-09-04T17:20:19.676Z,101597.84
2023-09-04T17:22:47.552Z,101582.75
2023-09-04T17:25:17.014Z,101587.22
2023-09-04T17:27:45.030Z,101591.69
2023-09-04T17:30:13.508Z,101589.09
2023-09-04T17:32:41.509Z,101577.56
2023-09-04T17:35:11.722Z,101589.16
2023-09-04T17:37:39.801Z,101585.63
2023-09-04T17:40:09.055Z,101583.91
2023-09-04T17:42:38.566Z,101583.94
2023-09-04T17:45:07.860Z,101585.75
2023-09-04T17:47:36.084Z,101586.66
2023-09-04T17:50:04.234Z,101577.81
2023-09-04T17:52:32.344Z,101574.25
2023-09-04T17:55:00.224Z,101568.06
2023-09-04T17:57:28.419Z,101575.19
2023-09-04T17:59:57.653Z,101568.13
2023-09-04T18:02:25.710Z,101579.72
2023-09-04T18:04:53.839Z,101579.72
2023-09-04T18:07:21.769Z,101575.31
2023-09-04T18:09:49.698Z,101582.41
2023-09-04T18:12:17.660Z,101577.09
2023-09-04T18:14:45.568Z,101580.66
2023-09-04T18:17:15.067Z,101579.75
2023-09-04T18:19:43.271Z,101583.31
2023-09-04T18:22:11.171Z,101576.22
2023-09-04T18:24:39.067Z,101575.34
2023-09-04T18:27:07.289Z,101573.56
2023-09-04T18:29:35.783Z,101574.47
2023-09-04T18:32:03.744Z,101568.25
2023-09-04T18:34:34.196Z,101572.72
2023-09-04T18:37:02.187Z,101569.16
2023-09-04T18:39:31.429Z,101563.00
2023-09-04T18:41:59.382Z,101564.78
2023-09-04T18:44:27.295Z,101560.34
2023-09-04T18:46:55.226Z,101564.78
2023-09-04T18:49:23.186Z,101560.34
2023-09-04T18:51:53.132Z,101563.03
2023-09-04T18:54:21.217Z,101572.81
2023-09-04T18:56:49.590Z,101571.94
2023-09-04T18:59:18.202Z,101484.94
2023-09-04T19:01:46.172Z,101571.91
2023-09-04T19:04:14.261Z,101563.03
2023-09-04T19:06:42.188Z,101559.47
2023-09-04T19:09:11.420Z,101563.03
2023-09-04T19:11:39.357Z,101569.25
2023-09-04T19:14:07.889Z,101562.13
2023-09-04T19:16:35.843Z,101568.34
2023-09-04T19:19:03.960Z,101568.34
2023-09-04T19:21:31.814Z,101565.69
2023-09-04T19:23:59.775Z,101577.22
2023-09-04T19:26:29.092Z,101569.22
2023-09-04T19:28:56.948Z,101558.56
2023-09-04T19:31:24.940Z,101573.66
2023-09-04T19:33:54.095Z,101580.75
2023-09-04T19:36:22.390Z,101569.22
2023-09-04T19:38:51.308Z,101571.88
2023-09-04T19:41:19.429Z,101569.19
2023-09-04T19:43:48.801Z,101567.41
2023-09-04T19:46:16.853Z,101575.41
2023-09-04T19:48:44.805Z,101567.41
2023-09-04T19:51:12.684Z,101576.28
2023-09-04T19:53:40.628Z,101575.38
2023-09-04T19:56:08.594Z,101571.84
2023-09-04T19:58:36.460Z,101577.16
2023-09-04T20:01:07.084Z,101578.94
2023-09-04T20:03:36.418Z,101570.06
2023-09-04T20:06:05.258Z,101551.41
2023-09-04T20:08:33.235Z,101564.75
2023-09-04T20:11:01.490Z,101566.50
2023-09-04T20:13:29.618Z,101571.81
2023-09-04T20:15:57.586Z,101557.63
2023-09-04T20:18:27.101Z,101566.50
2023-09-04T20:20:57.344Z,101561.16
2023-09-04T20:23:25.516Z,101589.53
2023-09-04T20:25:53.738Z,101575.28
2023-09-04T20:28:21.684Z,101573.50
2023-09-04T20:30:53.219Z,101575.25
2023-09-04T20:33:23.666Z,101573.47
2023-09-04T20:35:54.364Z,101570.81
2023-09-04T20:38:23.449Z,101570.81
2023-09-04T20:40:54.399Z,101548.63
2023-09-04T20:43:22.815Z,101565.47
2023-09-04T20:45:51.174Z,101560.13
2023-09-04T20:48:19.137Z,101552.16
2023-09-04T20:50:47.284Z,101546.81
2023-09-04T20:53:17.292Z,101553.91
2023-09-04T20:55:45.547Z,101547.66
2023-09-04T20:58:13.593Z,101562.75
2023-09-04T21:00:43.530Z,101556.53
2023-09-04T21:03:11.541Z,101561.84
2023-09-04T21:05:40.037Z,101564.50
2023-09-04T21:08:07.353Z,101561.84
2023-09-04T21:10:40.444Z,101547.59
2023-09-04T21:13:26.455Z,101564.47
2023-09-04T21:16:12.640Z,101558.25
2023-09-04T21:18:57.815Z,101556.44
2023-09-04T21:21:43.485Z,101557.34
2023-09-04T21:24:28.651Z,101552.91
2023-09-04T21:27:15.709Z,101558.22
2023-09-04T21:30:01.028Z,101556.47
2023-09-04T21:32:46.660Z,101535.13
2023-09-04T21:35:32.134Z,101552.00
2023-09-04T21:38:17.606Z,101555.56
2023-09-04T21:41:02.795Z,101560.00
2023-09-04T21:43:50.078Z,101528.97
2023-09-04T21:46:35.319Z,101559.13
2023-09-04T21:49:21.222Z,101546.72
2023-09-04T21:52:06.417Z,101545.81
2023-09-04T21:54:51.880Z,101537.84
2023-09-04T21:57:37.277Z,101548.50
2023-09-04T22:00:25.849Z,101529.00
2023-09-04T22:03:11.227Z,101534.34
2023-09-04T22:05:56.583Z,101535.22
2023-09-04T22:08:41.764Z,101541.44
2023-09-04T22:11:27.390Z,101529.91
2023-09-04T22:14:12.530Z,101533.44
2023-09-04T22:17:02.414Z,101531.69
2023-09-04T22:19:49.062Z,101547.63
2023-09-04T22:22:34.285Z,101536.97
2023-09-04T22:25:19.767Z,101528.97
2023-09-04T22:28:05.160Z,101511.16
2023-09-04T22:30:50.391Z,101528.91
2023-09-04T22:33:37.770Z,101520.00
2023-09-04T22:36:23.686Z,101529.72
2023-09-04T22:39:09.076Z,101537.63
2023-09-04T22:41:54.514Z,101528.66
2023-09-04T22:44:40.008Z,101517.16
2023-09-04T22:47:25.304Z,101529.56
2023-09-04T22:50:12.296Z,101524.28
2023-09-04T22:53:06.493Z,101524.25
2023-09-04T22:55:52.930Z,101518.06
2023-09-04T22:58:38.387Z,101495.88
2023-09-04T23:01:28.479Z,101510.94
2023-09-04T23:04:14.346Z,101511.78
2023-09-04T23:07:01.295Z,101514.44
2023-09-04T23:09:46.482Z,101511.75
2023-09-04T23:12:31.975Z,101511.75
2023-09-04T23:15:17.280Z,101505.53
2023-09-04T23:18:02.935Z,101494.91
2023-09-04T23:20:48.467Z,101447.88
2023-09-04T23:23:19.148Z,101479.84
2023-09-04T23:25:49.355Z,101469.16
2023-09-04T23:28:19.376Z,101481.56
2023-09-04T23:30:55.946Z,101471.78
2023-09-04T23:33:38.420Z,101476.19
2023-09-04T23:36:16.907Z,101462.78
2023-09-04T23:39:04.246Z,101461.94
2023-09-04T23:41:49.584Z,101447.72
2023-09-04T23:44:43.217Z,101484.06
2023-09-04T23:47:11.518Z,101489.34
2023-09-04T23:49:39.652Z,101486.69
2023-09-04T23:52:09.974Z,101484.00
2023-09-04T23:54:39.406Z,101483.97
2023-09-04T23:57:09.313Z,101437.69
2023-09-04T23:59:38.616Z,101472.34
